createdAt,value
2018-10-12T00:00:57.023Z,101986.94
2018-10-12T00:03:26.147Z,101987.34
2018-10-12T00:05:55.348Z,101987.34
2018-10-12T00:08:24.917Z,101984.41
2018-10-12T00:10:54.235Z,101980.53
2018-10-12T00:13:23.357Z,101982.58
2018-10-12T00:15:52.547Z,101980.91
2018-10-12T00:18:21.705Z,101973.59
2018-10-12T00:20:50.910Z,101984.72
2018-10-12T00:23:20.614Z,101969.14
2018-10-12T00:25:49.721Z,101970.31
2018-10-12T00:28:18.900Z,101967.38
2018-10-12T00:30:48.527Z,101963.90
2018-10-12T00:33:17.829Z,101957.45
2018-10-12T00:35:47.122Z,101950.73
2018-10-12T00:38:16.729Z,101948.67
2018-10-12T00:40:45.836Z,101942.33
2018-10-12T00:43:15.380Z,101938.92
2018-10-12T00:45:44.934Z,101928.80
2018-10-12T00:48:14.049Z,101931.13
2018-10-12T00:50:43.291Z,101927.72
2018-10-12T00:53:12.938Z,101926.38
2018-10-12T00:55:42.068Z,101926.45
2018-10-12T00:58:11.217Z,101925.12
2018-10-12T01:00:40.837Z,101929.06
2018-10-12T01:03:09.989Z,101921.41
2018-10-12T01:05:39.320Z,101925.22
2018-10-12T01:08:09.042Z,101918.66
2018-10-12T01:10:38.407Z,101910.34
2018-10-12T01:13:07.777Z,101910.02
2018-10-12T01:15:37.386Z,101905.77
2018-10-12T01:18:06.575Z,101902.48
2018-10-12T01:20:35.842Z,101911.13
2018-10-12T01:23:05.355Z,101908.37
2018-10-12T01:25:34.602Z,101911.45
2018-10-12T01:28:03.805Z,101915.73
2018-10-12T01:30:33.482Z,101911.00
2018-10-12T01:33:04.646Z,101911.41
2018-10-12T01:35:35.337Z,101918.80
2018-10-12T01:38:04.527Z,101912.88
2018-10-12T01:40:34.009Z,101912.00
2018-10-12T01:43:03.537Z,101916.50
2018-10-12T01:45:32.773Z,101915.88
2018-10-12T01:48:01.983Z,101915.09
2018-10-12T01:50:31.541Z,101908.30
2018-10-12T01:53:01.533Z,101905.06
2018-10-12T01:55:30.681Z,101901.83
2018-10-12T01:58:00.161Z,101895.51
2018-10-12T02:00:29.469Z,101900.73
2018-10-12T02:02:58.673Z,101900.58
2018-10-12T02:05:28.266Z,101893.78
2018-10-12T02:07:57.479Z,101889.99
2018-10-12T02:10:27.482Z,101879.09
2018-10-12T02:12:56.767Z,101876.16
2018-10-12T02:15:26.101Z,101874.59
2018-10-12T02:17:55.685Z,101881.78
2018-10-12T02:20:25.689Z,101877.52
2018-10-12T02:22:54.830Z,101870.75
2018-10-12T02:25:24.373Z,101876.44
2018-10-12T02:27:53.613Z,101875.66
2018-10-12T02:30:22.803Z,101874.55
2018-10-12T02:32:52.409Z,101863.72
2018-10-12T02:35:21.608Z,101859.61
2018-10-12T02:37:50.814Z,101850.25
2018-10-12T02:40:20.411Z,101853.33
2018-10-12T02:42:49.554Z,101847.17
2018-10-12T02:45:18.950Z,101842.34
2018-10-12T02:47:48.721Z,101853.57
2018-10-12T02:50:17.932Z,101849.14
2018-10-12T02:52:47.124Z,101842.43
2018-10-12T02:55:16.617Z,101831.24
2018-10-12T02:57:45.749Z,101836.97
2018-10-12T03:00:15.445Z,101825.59
2018-10-12T03:02:45.031Z,101822.24
2018-10-12T03:05:14.237Z,101821.91
2018-10-12T03:07:43.916Z,101826.42
2018-10-12T03:10:13.443Z,101833.20
2018-10-12T03:12:42.752Z,101829.66
2018-10-12T03:15:12.373Z,101838.34
2018-10-12T03:17:41.599Z,101829.03
2018-10-12T03:20:10.778Z,101833.45
2018-10-12T03:22:39.892Z,101835.71
2018-10-12T03:25:09.581Z,101841.24
2018-10-12T03:27:50.338Z,101828.52
2018-10-12T03:30:20.138Z,101821.81
2018-10-12T03:32:49.510Z,101825.68
2018-10-12T03:35:18.830Z,101824.25
2018-10-12T03:37:48.442Z,101820.07
2018-10-12T03:40:17.657Z,101817.15
2018-10-12T03:42:46.988Z,101817.30
2018-10-12T03:45:17.172Z,101818.02
2018-10-12T03:47:46.347Z,101804.11
2018-10-12T03:50:15.705Z,101802.14
2018-10-12T03:52:46.189Z,101804.35
2018-10-12T03:55:15.557Z,101796.05
2018-10-12T03:57:44.653Z,101796.53
2018-10-12T04:00:14.194Z,101801.03
2018-10-12T04:02:43.448Z,101798.51
2018-10-12T04:05:13.267Z,101809.87
2018-10-12T04:07:42.910Z,101802.45
2018-10-12T04:10:12.061Z,101807.20
2018-10-12T04:12:41.991Z,101805.30
2018-10-12T04:15:11.572Z,101812.41
2018-10-12T04:17:41.567Z,101814.23
2018-10-12T04:20:11.865Z,101802.45
2018-10-12T04:22:40.993Z,101803.32
2018-10-12T04:25:10.279Z,101811.34
2018-10-12T04:27:39.873Z,101807.00
2018-10-12T04:30:09.319Z,101806.36
2018-10-12T04:32:39.079Z,101802.97
2018-10-12T04:35:09.278Z,101798.94
2018-10-12T04:37:38.869Z,101798.19
2018-10-12T04:40:19.736Z,101798.98
2018-10-12T04:42:49.231Z,101801.11
2018-10-12T04:45:18.533Z,101799.77
2018-10-12T04:47:48.329Z,101804.19
2018-10-12T04:50:17.819Z,101800.03
2018-10-12T04:52:47.148Z,101804.84
2018-10-12T04:55:16.814Z,101805.16
2018-10-12T04:57:46.034Z,101812.50
2018-10-12T05:00:15.214Z,101814.47
2018-10-12T05:02:44.476Z,101820.17
2018-10-12T05:05:13.730Z,101822.92
2018-10-12T05:07:43.048Z,101828.69
2018-10-12T05:10:12.610Z,101832.16
2018-10-12T05:12:41.755Z,101840.00
2018-10-12T05:15:11.246Z,101832.25
2018-10-12T05:17:41.614Z,101835.59
2018-10-12T05:20:11.680Z,101840.80
2018-10-12T05:22:41.181Z,101850.59
2018-10-12T05:25:10.407Z,101845.55
2018-10-12T05:27:39.842Z,101851.86
2018-10-12T05:30:09.475Z,101851.15
2018-10-12T05:32:39.541Z,101853.77
2018-10-12T05:35:08.955Z,101862.61
2018-10-12T05:37:38.503Z,101862.61
2018-10-12T05:40:07.711Z,101857.68
2018-10-12T05:42:36.845Z,101865.98
2018-10-12T05:45:06.697Z,101864.75
2018-10-12T05:47:36.120Z,101877.08
2018-10-12T05:50:08.278Z,101878.27
2018-10-12T05:52:38.355Z,101876.84
2018-10-12T05:55:08.041Z,101879.52
2018-10-12T05:57:40.557Z,101878.73
2018-10-12T06:00:10.565Z,101879.12
2018-10-12T06:02:39.914Z,101876.91
2018-10-12T06:05:09.767Z,101879.41
2018-10-12T06:07:39.125Z,101877.11
2018-10-12T06:10:08.419Z,101875.30
2018-10-12T06:12:37.539Z,101883.63
2018-10-12T06:15:06.822Z,101878.66
2018-10-12T06:17:35.994Z,101878.42
2018-10-12T06:20:06.112Z,101880.78
2018-10-12T06:22:35.638Z,101874.15
2018-10-12T06:25:04.898Z,101881.89
2018-10-12T06:27:34.427Z,101876.84
2018-10-12T06:30:03.620Z,101877.70
2018-10-12T06:32:32.832Z,101877.00
2018-10-12T06:35:02.509Z,101881.66
2018-10-12T06:37:31.771Z,101889.88
2018-10-12T06:40:01.029Z,101885.80
2018-10-12T06:42:30.681Z,101892.67
2018-10-12T06:44:59.849Z,101896.62
2018-10-12T06:47:29.201Z,101902.86
2018-10-12T06:49:59.498Z,101897.49
2018-10-12T06:52:28.658Z,101902.39
2018-10-12T06:54:57.794Z,101908.24
2018-10-12T06:57:30.129Z,101912.36
2018-10-12T06:59:59.949Z,101798.82
2018-10-12T07:02:29.105Z,101915.20
2018-10-12T07:04:58.634Z,101909.75
2018-10-12T07:07:27.860Z,101911.17
2018-10-12T07:09:57.053Z,101906.00
2018-10-12T07:12:26.534Z,101911.54
2018-10-12T07:14:56.243Z,101909.41
2018-10-12T07:17:25.366Z,101913.38
2018-10-12T07:19:55.302Z,101911.78
2018-10-12T07:22:24.659Z,101910.05
2018-10-12T07:24:53.870Z,101914.78
2018-10-12T07:27:23.463Z,101903.88
2018-10-12T07:29:53.182Z,101912.66
2018-10-12T07:32:22.434Z,101908.23
2018-10-12T07:34:51.611Z,101910.94
2018-10-12T07:37:21.419Z,101912.12
2018-10-12T07:39:50.504Z,101905.87
2018-10-12T07:42:19.715Z,101906.41
2018-10-12T07:44:48.981Z,101910.05
2018-10-12T07:47:18.507Z,101916.90
2018-10-12T07:49:48.085Z,101905.27
2018-10-12T07:52:17.306Z,101902.50
2018-10-12T07:54:46.554Z,101899.31
2018-10-12T07:57:16.903Z,101902.38
2018-10-12T07:59:46.352Z,101914.30
2018-10-12T08:02:15.547Z,101916.74
2018-10-12T08:04:45.013Z,101919.04
2018-10-12T08:07:14.808Z,101923.95
2018-10-12T08:09:44.154Z,101927.96
2018-10-12T08:12:13.281Z,101923.19
2018-10-12T08:14:43.057Z,101920.36
2018-10-12T08:17:12.360Z,101919.59
2018-10-12T08:19:41.662Z,101913.59
2018-10-12T08:22:10.823Z,101908.44
2018-10-12T08:24:40.129Z,101915.00
2018-10-12T08:27:09.644Z,101921.91
2018-10-12T08:29:39.038Z,101920.47
2018-10-12T08:32:08.453Z,101921.25
2018-10-12T08:34:37.672Z,101931.00
2018-10-12T08:37:07.274Z,101939.45
2018-10-12T08:39:36.398Z,101939.13
2018-10-12T08:42:05.578Z,101945.82
2018-10-12T08:44:34.845Z,101954.43
2018-10-12T08:47:04.762Z,101949.81
2018-10-12T08:49:34.351Z,101954.88
2018-10-12T08:52:03.481Z,101941.59
2018-10-12T08:54:32.645Z,101943.72
2018-10-12T08:57:01.853Z,101944.00
2018-10-12T08:59:30.964Z,101934.48
2018-10-12T09:02:00.080Z,101929.54
2018-10-12T09:04:29.538Z,101929.71
2018-10-12T09:06:59.053Z,101929.80
2018-10-12T09:09:28.183Z,101919.38
2018-10-12T09:11:57.473Z,101916.98
2018-10-12T09:14:26.662Z,101908.56
2018-10-12T09:16:55.809Z,101900.52
2018-10-12T09:19:25.047Z,101894.62
2018-10-12T09:21:54.224Z,101890.53
2018-10-12T09:24:23.355Z,101887.92
2018-10-12T09:26:52.863Z,101888.41
2018-10-12T09:29:22.346Z,101900.83
2018-10-12T09:31:51.458Z,101902.38
2018-10-12T09:34:20.979Z,101906.99
2018-10-12T09:36:50.129Z,101909.05
2018-10-12T09:39:19.427Z,101913.86
2018-10-12T09:41:49.138Z,101917.24
2018-10-12T09:44:18.346Z,101907.61
2018-10-12T09:46:47.670Z,101905.20
2018-10-12T09:49:17.247Z,101904.44
2018-10-12T09:51:46.443Z,101894.91
2018-10-12T09:54:15.948Z,101899.24
2018-10-12T09:56:50.782Z,101904.33
2018-10-12T09:59:20.623Z,101905.11
2018-10-12T10:01:55.378Z,101890.27
2018-10-12T10:04:30.521Z,101878.34
2018-10-12T10:07:00.985Z,101860.80
2018-10-12T10:09:30.195Z,101860.03
2018-10-12T10:11:59.563Z,101848.08
2018-10-12T10:14:29.705Z,101847.05
2018-10-12T10:16:58.909Z,101848.78
2018-10-12T10:19:28.207Z,101851.95
2018-10-12T10:21:57.702Z,101854.46
2018-10-12T10:24:26.903Z,101862.55
2018-10-12T10:26:56.107Z,101865.56
2018-10-12T10:29:26.032Z,101850.11
2018-10-12T10:31:55.114Z,101841.16
2018-10-12T10:34:24.312Z,101842.59
2018-10-12T10:36:54.613Z,101847.77
2018-10-12T10:39:23.744Z,101815.58
2018-10-12T10:41:53.844Z,101839.95
2018-10-12T10:44:23.033Z,101826.18
2018-10-12T10:46:52.270Z,101818.61
2018-10-12T10:49:21.750Z,101825.44
2018-10-12T10:51:50.873Z,101822.12
2018-10-12T10:54:20.004Z,101822.91
2018-10-12T10:56:49.601Z,101817.30
2018-10-12T10:59:18.722Z,101823.64
2018-10-12T11:01:48.519Z,101827.87
2018-10-12T11:04:18.102Z,101823.05
2018-10-12T11:06:47.728Z,101815.98
2018-10-12T11:09:16.965Z,101812.20
2018-10-12T11:11:46.570Z,101806.57
2018-10-12T11:14:15.714Z,101816.81
2018-10-12T11:16:44.858Z,101814.54
2018-10-12T11:19:14.366Z,101829.20
2018-10-12T11:21:43.582Z,101832.05
2018-10-12T11:24:12.980Z,101834.33
2018-10-12T11:26:42.546Z,101842.03
2018-10-12T11:29:12.267Z,101845.39
2018-10-12T11:31:41.405Z,101831.87
2018-10-12T11:34:10.776Z,101832.18
2018-10-12T11:36:39.890Z,101821.30
2018-10-12T11:39:12.393Z,101803.55
2018-10-12T11:41:41.757Z,101790.97
2018-10-12T11:44:10.883Z,101789.55
2018-10-12T11:46:40.557Z,101793.64
2018-10-12T11:49:09.790Z,101780.74
2018-10-12T11:51:38.961Z,101778.30
2018-10-12T11:54:08.453Z,101779.37
2018-10-12T11:56:37.680Z,101779.47
2018-10-12T11:59:06.813Z,101776.53
2018-10-12T12:01:36.402Z,101774.38
2018-10-12T12:04:05.933Z,101764.10
2018-10-12T12:06:35.068Z,101761.69
2018-10-12T12:09:05.497Z,101766.83
2018-10-12T12:11:34.830Z,101758.09
2018-10-12T12:14:04.172Z,101749.26
2018-10-12T12:16:33.999Z,101765.05
2018-10-12T12:19:03.265Z,101771.05
2018-10-12T12:21:32.455Z,101782.95
2018-10-12T12:24:02.113Z,101783.88
2018-10-12T12:26:31.317Z,101779.36
2018-10-12T12:29:01.125Z,101789.28
2018-10-12T12:31:30.754Z,101797.70
2018-10-12T12:33:59.921Z,101802.81
2018-10-12T12:36:29.632Z,101793.13
2018-10-12T12:38:59.075Z,101806.45
2018-10-12T12:41:28.307Z,101795.70
2018-10-12T12:43:57.472Z,101800.78
2018-10-12T12:46:27.133Z,101794.23
2018-10-12T12:48:57.232Z,101801.70
2018-10-12T12:51:26.058Z,101800.34
2018-10-12T12:53:55.347Z,101785.42
2018-10-12T12:56:24.438Z,101785.40
2018-10-12T12:58:53.574Z,101780.23
2018-10-12T13:01:22.756Z,101782.69
2018-10-12T13:03:51.917Z,101777.25
2018-10-12T13:06:21.127Z,101769.75
2018-10-12T13:08:50.353Z,101718.08
2018-10-12T13:11:19.477Z,101769.44
2018-10-12T13:13:48.771Z,101766.41
2018-10-12T13:16:18.425Z,101767.14
2018-10-12T13:18:47.627Z,101773.19
2018-10-12T13:21:16.787Z,101767.66
2018-10-12T13:23:46.637Z,101759.52
2018-10-12T13:26:15.998Z,101763.20
2018-10-12T13:28:45.006Z,101758.95
2018-10-12T13:31:14.566Z,101761.84
2018-10-12T13:33:43.733Z,101756.55
2018-10-12T13:36:12.867Z,101752.86
2018-10-12T13:38:42.155Z,101748.91
2018-10-12T13:41:11.371Z,101753.15
2018-10-12T13:43:40.783Z,101758.27
2018-10-12T13:46:10.161Z,101757.16
2018-10-12T13:48:39.302Z,101748.85
2018-10-12T13:51:08.550Z,101747.23
2018-10-12T13:53:38.133Z,101741.20
2018-10-12T13:56:07.373Z,101743.23
2018-10-12T13:58:36.530Z,101736.81
2018-10-12T14:01:06.133Z,101723.88
2018-10-12T14:03:35.446Z,101719.50
2018-10-12T14:06:04.626Z,101722.33
2018-10-12T14:08:34.134Z,101719.49
2018-10-12T14:11:03.266Z,101725.29
2018-10-12T14:13:32.567Z,101724.42
2018-10-12T14:16:02.035Z,101720.59
2018-10-12T14:18:31.220Z,101721.95
2018-10-12T14:21:00.437Z,101721.64
2018-10-12T14:23:30.154Z,101720.16
2018-10-12T14:25:59.269Z,101721.75
2018-10-12T14:28:31.551Z,101718.22
2018-10-12T14:31:01.585Z,101709.32
2018-10-12T14:33:31.266Z,101718.71
2018-10-12T14:36:00.837Z,101725.98
2018-10-12T14:38:30.063Z,101718.71
2018-10-12T14:40:59.342Z,101714.70
2018-10-12T14:43:28.941Z,101712.59
2018-10-12T14:45:58.188Z,101706.41
2018-10-12T14:48:27.347Z,101708.13
2018-10-12T14:50:56.842Z,101709.92
2018-10-12T14:53:26.132Z,101711.39
2018-10-12T14:55:55.446Z,101712.58
2018-10-12T14:58:24.641Z,101714.47
2018-10-12T15:00:53.978Z,101700.57
2018-10-12T15:03:23.090Z,101702.16
2018-10-12T15:05:52.641Z,101704.91
2018-10-12T15:08:21.813Z,101702.57
2018-10-12T15:10:50.969Z,101698.52
2018-10-12T15:13:21.673Z,101694.04
2018-10-12T15:15:50.802Z,101693.55
2018-10-12T15:18:19.978Z,101690.61
2018-10-12T15:20:49.452Z,101683.58
2018-10-12T15:23:19.173Z,101692.45
2018-10-12T15:25:48.458Z,101692.66
2018-10-12T15:28:17.878Z,101689.37
2018-10-12T15:30:47.006Z,101683.39
2018-10-12T15:33:16.177Z,101678.31
2018-10-12T15:35:45.697Z,101690.28
2018-10-12T15:38:14.874Z,101693.27
2018-10-12T15:40:44.219Z,101695.34
2018-10-12T15:43:14.373Z,101698.16
2018-10-12T15:45:43.513Z,101698.95
2018-10-12T15:48:12.940Z,101705.64
2018-10-12T15:50:42.444Z,101697.05
2018-10-12T15:53:11.722Z,101707.84
2018-10-12T15:55:41.005Z,101707.06
2018-10-12T15:58:10.705Z,101706.72
2018-10-12T16:00:39.834Z,101712.88
2018-10-12T16:03:09.434Z,101713.84
2018-10-12T16:05:38.617Z,101711.84
2018-10-12T16:08:07.850Z,101718.95
2018-10-12T16:10:37.162Z,101720.64
2018-10-12T16:13:06.970Z,101716.46
2018-10-12T16:15:36.209Z,101722.24
2018-10-12T16:18:05.440Z,101724.39
2018-10-12T16:20:35.128Z,101729.20
2018-10-12T16:23:04.353Z,101729.20
2018-10-12T16:26:26.099Z,101732.02
2018-10-12T16:28:55.259Z,101744.93
2018-10-12T16:31:24.393Z,101631.09
2018-10-12T16:33:53.666Z,101751.41
2018-10-12T16:36:22.916Z,101755.77
2018-10-12T16:38:52.265Z,101757.59
2018-10-12T16:41:21.588Z,101762.84
2018-10-12T16:43:50.717Z,101771.54
2018-10-12T16:46:19.942Z,101774.42
2018-10-12T16:48:49.578Z,101737.63
2018-10-12T16:51:18.605Z,101765.73
2018-10-12T16:53:47.860Z,101765.45
2018-10-12T16:56:17.340Z,101762.75
2018-10-12T16:58:46.537Z,101758.80
2018-10-12T17:01:15.822Z,101767.11
2018-10-12T17:03:45.553Z,101764.52
2018-10-12T17:06:14.859Z,101763.66
2018-10-12T17:08:44.050Z,101765.50
2018-10-12T17:11:13.657Z,101764.16
2018-10-12T17:13:42.917Z,101755.94
2018-10-12T17:16:12.834Z,101761.44
2018-10-12T17:18:42.391Z,101760.00
2018-10-12T17:21:11.543Z,101758.95
2018-10-12T17:23:40.814Z,101764.63
2018-10-12T17:26:10.007Z,101757.50
2018-10-12T17:28:39.154Z,101762.13
2018-10-12T17:31:09.122Z,101770.61
2018-10-12T17:33:39.045Z,101773.88
2018-10-12T17:36:08.209Z,101779.28
2018-10-12T17:38:37.450Z,101781.20
2018-10-12T17:41:17.225Z,101784.48
2018-10-12T17:43:46.897Z,101778.90
2018-10-12T17:46:16.644Z,101781.21
2018-10-12T17:48:45.829Z,101781.41
2018-10-12T17:51:15.042Z,101788.92
2018-10-12T17:53:44.167Z,101786.32
2018-10-12T17:56:13.327Z,101786.80
2018-10-12T17:58:42.543Z,101755.53
2018-10-12T18:01:11.782Z,101785.64
2018-10-12T18:03:41.606Z,101781.21
2018-10-12T18:06:10.765Z,101782.20
2018-10-12T18:08:39.941Z,101773.73
2018-10-12T18:11:09.789Z,101766.89
2018-10-12T18:13:39.014Z,101772.95
2018-10-12T18:16:08.255Z,101775.36
2018-10-12T18:18:37.699Z,101771.61
2018-10-12T18:21:07.178Z,101771.70
2018-10-12T18:23:36.381Z,101769.64
2018-10-12T18:26:06.020Z,101768.58
2018-10-12T18:28:35.153Z,101768.86
2018-10-12T18:31:04.367Z,101762.41
2018-10-12T18:33:33.589Z,101737.12
2018-10-12T18:36:03.568Z,101762.20
2018-10-12T18:38:32.715Z,101762.20
2018-10-12T18:41:02.322Z,101762.20
2018-10-12T18:43:31.549Z,101758.34
2018-10-12T18:46:00.767Z,101766.05
2018-10-12T18:48:30.361Z,101761.33
2018-10-12T18:50:59.566Z,101759.69
2018-10-12T18:53:28.693Z,101758.91
2018-10-12T18:55:58.638Z,101755.78
2018-10-12T18:58:27.902Z,101760.58
2018-10-12T19:00:57.301Z,101759.23
2018-10-12T19:03:27.001Z,101765.67
2018-10-12T19:05:56.208Z,101758.25
2018-10-12T19:08:25.340Z,101760.56
2018-10-12T19:10:54.615Z,101762.57
2018-10-12T19:13:23.869Z,101759.78
2018-10-12T19:15:53.425Z,101764.42
2018-10-12T19:18:22.584Z,101767.41
2018-10-12T19:20:52.039Z,101765.78
2018-10-12T19:23:21.221Z,101766.56
2018-10-12T19:25:51.097Z,101765.39
2018-10-12T19:28:20.365Z,101776.35
2018-10-12T19:30:49.607Z,101769.39
2018-10-12T19:33:18.769Z,101770.74
2018-10-12T19:35:48.010Z,101779.20
2018-10-12T19:38:17.269Z,101774.69
2018-10-12T19:40:46.591Z,101774.96
2018-10-12T19:43:16.214Z,101776.88
2018-10-12T19:45:45.333Z,101779.63
2018-10-12T19:48:16.649Z,101777.89
2018-10-12T19:50:45.814Z,101777.59
2018-10-12T19:53:15.046Z,101780.56
2018-10-12T19:55:45.513Z,101785.83
2018-10-12T19:58:14.681Z,101792.34
2018-10-12T20:00:44.257Z,101791.00
2018-10-12T20:03:13.540Z,101793.02
2018-10-12T20:05:42.937Z,101787.48
2018-10-12T20:08:12.295Z,101791.21
2018-10-12T20:10:41.891Z,101795.08
2018-10-12T20:13:13.385Z,101791.39
2018-10-12T20:15:43.048Z,101801.52
2018-10-12T20:18:12.615Z,101796.17
2018-10-12T20:20:42.403Z,101797.21
2018-10-12T20:23:13.365Z,101796.20
2018-10-12T20:25:42.844Z,101801.67
2018-10-12T20:28:12.465Z,101798.77
2018-10-12T20:30:41.641Z,101802.97
2018-10-12T20:33:10.783Z,101800.02
2018-10-12T20:35:40.085Z,101798.84
2018-10-12T20:38:09.393Z,101799.48
2018-10-12T20:40:38.575Z,101802.66
2018-10-12T20:43:07.845Z,101806.45
2018-10-12T20:45:37.393Z,101809.48
2018-10-12T20:48:07.213Z,101811.07
2018-10-12T20:50:36.526Z,101807.37
2018-10-12T20:53:06.242Z,101812.40
2018-10-12T20:55:36.053Z,101810.83
2018-10-12T20:58:05.340Z,101812.89
2018-10-12T21:00:35.515Z,101810.92
2018-10-12T21:03:04.937Z,101811.80
2018-10-12T21:05:34.189Z,101807.38
2018-10-12T21:08:03.345Z,101802.16
2018-10-12T21:10:32.822Z,101811.77
2018-10-12T21:13:01.967Z,101805.30
2018-10-12T21:15:31.470Z,101801.42
2018-10-12T21:18:00.891Z,101804.27
2018-10-12T21:20:29.989Z,101799.84
2018-10-12T21:23:00.035Z,101806.56
2018-10-12T21:25:30.547Z,101810.20
2018-10-12T21:28:00.457Z,101806.72
2018-10-12T21:30:30.759Z,101802.69
2018-10-12T21:33:04.354Z,101807.44
2018-10-12T21:35:33.552Z,101800.16
2018-10-12T21:38:02.754Z,101806.60
2018-10-12T21:40:31.915Z,101768.41
2018-10-12T21:43:01.258Z,101807.78
2018-10-12T21:45:30.488Z,101806.59
2018-10-12T21:48:06.665Z,101805.02
2018-10-12T21:50:36.759Z,101807.85
2018-10-12T21:53:07.151Z,101804.84
2018-10-12T21:55:36.374Z,101808.52
2018-10-12T21:58:06.077Z,101805.52
2018-10-12T22:00:35.350Z,101816.33
2018-10-12T22:03:04.496Z,101817.67
2018-10-12T22:05:33.753Z,101816.02
2018-10-12T22:08:03.185Z,101820.55
2018-10-12T22:10:32.372Z,101826.87
2018-10-12T22:13:01.613Z,101823.23
2018-10-12T22:15:31.158Z,101826.08
2018-10-12T22:18:00.376Z,101828.83
2018-10-12T22:20:29.597Z,101831.66
2018-10-12T22:22:59.310Z,101830.08
2018-10-12T22:25:28.650Z,101822.17
2018-10-12T22:27:58.065Z,101826.75
2018-10-12T22:30:27.770Z,101827.69
2018-10-12T22:32:57.134Z,101817.66
2018-10-12T22:35:26.737Z,101813.86
2018-10-12T22:37:56.399Z,101816.14
2018-10-12T22:40:25.897Z,101809.23
2018-10-12T22:42:56.056Z,101805.34
2018-10-12T22:45:26.234Z,101798.72
2018-10-12T22:47:55.329Z,101801.00
2018-10-12T22:50:24.576Z,101798.47
2018-10-12T22:52:54.033Z,101795.71
2018-10-12T22:55:23.298Z,101800.20
2018-10-12T22:57:56.979Z,101796.11
2018-10-12T23:00:26.126Z,101797.45
2018-10-12T23:02:55.421Z,101793.03
2018-10-12T23:05:24.837Z,101789.41
2018-10-12T23:07:54.096Z,101793.28
2018-10-12T23:10:24.058Z,101795.48
2018-10-12T23:12:54.011Z,101790.73
2018-10-12T23:15:23.333Z,101792.47
2018-10-12T23:17:52.633Z,101787.50
2018-10-12T23:20:22.166Z,101784.46
2018-10-12T23:22:51.369Z,101792.19
2018-10-12T23:25:20.569Z,101789.18
2018-10-12T23:27:50.020Z,101791.61
2018-10-12T23:30:19.292Z,101785.38
2018-10-12T23:32:48.909Z,101785.85
2018-10-12T23:35:18.374Z,101789.55
2018-10-12T23:37:47.589Z,101792.38
2018-10-12T23:40:16.696Z,101800.03
2018-10-12T23:42:47.202Z,101799.16
2018-10-12T23:45:16.389Z,101796.48
2018-10-12T23:47:45.711Z,101799.63
2018-10-12T23:50:14.917Z,101794.02
2018-10-12T23:52:44.025Z,101793.62
2018-10-12T23:55:13.337Z,101807.42
2018-10-12T23:57:42.789Z,101805.44
